Time;durP1;ratioP1;P1;durP2;ratioP2;P2;SDS_P1;SDS_P2;PMS_P1;PMS_P2;Temp;Humidity;BMP_temperature;BMP_pressure;BME280_temperature;BME280_humidity;BME280_pressure;Samples;Min_cycle;Max_cycle;Signal;HPM_P1;HPM_P2
2021/10/07 00:00:25;;;;;;;144.25;23.25;;;8.50;99.90;;;;;;4872520;29;20132;-93
2021/10/07 00:07:22;;;;;;;372.55;27.17;;;8.50;99.90;;;;;;4880632;29;20083;-94
2021/10/07 00:13:29;;;;;;;;;;;8.60;99.90;;;;;;4881306;29;20043;-93
2021/10/07 00:23:26;;;;;;;339.70;23.67;;;8.80;99.90;;;;;;4880108;29;20048;-95
2021/10/07 00:25:54;;;;;;;659.88;37.25;;;8.90;99.90;;;;;;4863602;29;20051;-95
2021/10/07 00:28:20;;;;;;;478.58;29.77;;;9.00;99.90;;;;;;4849573;29;20477;-95
2021/10/07 00:30:46;;;;;;;442.27;29.02;;;9.00;99.90;;;;;;4845845;29;20056;-96
2021/10/07 00:33:22;;;;;;;393.70;28.42;;;9.10;99.90;;;;;;4830909;29;20049;-95
2021/10/07 00:36:03;;;;;;;331.05;26.17;;;9.20;99.90;;;;;;4846664;29;20481;-96
2021/10/07 00:41:46;;;;;;;556.28;36.03;;;9.20;99.90;;;;;;4861872;29;19968;-95
2021/10/07 00:47:53;;;;;;;279.23;23.65;;;9.30;99.90;;;;;;4871667;29;20557;-96
2021/10/07 00:50:19;;;;;;;396.65;29.38;;;9.30;99.90;;;;;;4809525;29;1154761;-95
2021/10/07 00:52:45;;;;;;;264.73;23.88;;;9.30;99.90;;;;;;4854940;29;20060;-96
2021/10/07 00:55:12;;;;;;;191.10;21.73;;;9.40;99.90;;;;;;4851947;29;20492;-96
2021/10/07 00:57:39;;;;;;;529.67;33.92;;;9.40;99.90;;;;;;4847162;29;20063;-94
2021/10/07 01:00:06;;;;;;;526.25;33.28;;;9.40;99.90;;;;;;4847465;29;20061;-96
2021/10/07 01:02:31;;;;;;;400.83;28.08;;;9.40;99.90;;;;;;4831989;29;20053;-96
2021/10/07 01:04:57;;;;;;;377.60;29.77;;;9.40;99.90;;;;;;4830435;29;20175;-96
2021/10/07 01:07:23;;;;;;;318.88;22.42;;;9.40;99.90;;;;;;4855240;29;20048;-96
2021/10/07 01:09:49;;;;;;;418.75;24.85;;;9.40;99.90;;;;;;4846158;29;20450;-96
2021/10/07 01:12:15;;;;;;;352.52;22.40;;;9.40;99.90;;;;;;4847171;29;20049;-96
2021/10/07 01:14:53;;;;;;;491.60;31.27;;;9.30;99.90;;;;;;4846652;29;20068;-96
2021/10/07 01:17:21;;;;;;;309.45;20.65;;;9.30;99.90;;;;;;4862697;29;20053;-96
2021/10/07 01:19:49;;;;;;;473.05;27.77;;;9.40;99.90;;;;;;4846904;29;20059;-94
2021/10/07 01:22:16;;;;;;;374.83;22.25;;;9.40;99.90;;;;;;4862481;29;20053;-93
2021/10/07 01:24:42;;;;;;;345.60;18.17;;;9.30;99.90;;;;;;4847079;29;20101;-96
2021/10/07 01:27:10;;;;;;;555.88;24.73;;;9.30;99.90;;;;;;4846999;29;20087;-96
2021/10/07 01:29:37;;;;;;;125.22;9.88;;;9.30;99.90;;;;;;4846735;29;20183;-96
2021/10/07 01:32:04;;;;;;;489.98;24.00;;;9.20;99.90;;;;;;4846531;29;20045;-96
2021/10/07 01:34:33;;;;;;;602.88;25.90;;;9.20;99.90;;;;;;4858559;29;20057;-96
2021/10/07 01:37:00;;;;;;;429.00;19.27;;;9.20;99.90;;;;;;4866760;29;20056;-96
2021/10/07 01:39:26;;;;;;;419.38;16.73;;;9.20;99.90;;;;;;4859450;29;20056;-96
2021/10/07 01:41:52;;;;;;;406.08;16.63;;;9.20;99.90;;;;;;4846209;29;20091;-95
2021/10/07 01:44:23;;;;;;;279.77;13.57;;;9.20;99.90;;;;;;4831726;29;20053;-96
2021/10/07 01:46:49;;;;;;;337.90;17.10;;;9.10;99.90;;;;;;4861583;29;20053;-96
2021/10/07 01:49:15;;;;;;;265.52;13.38;;;9.10;99.90;;;;;;4848177;29;20049;-95
2021/10/07 01:51:42;;;;;;;168.82;10.55;;;9.20;99.90;;;;;;4846293;29;20053;-95
2021/10/07 01:54:08;;;;;;;349.85;16.73;;;9.10;99.90;;;;;;4855880;29;20071;-95
2021/10/07 01:56:34;;;;;;;445.65;20.05;;;9.10;99.90;;;;;;4846187;29;20093;-94
2021/10/07 01:59:00;;;;;;;288.42;14.27;;;9.10;99.90;;;;;;4850285;29;20087;-94
2021/10/07 02:01:27;;;;;;;239.35;16.63;;;9.10;99.90;;;;;;4873861;29;20401;-93
2021/10/07 02:03:53;;;;;;;440.38;20.63;;;9.10;99.90;;;;;;4872633;29;20053;-95
2021/10/07 02:06:19;;;;;;;363.83;16.70;;;9.10;99.90;;;;;;4861530;29;20045;-95
2021/10/07 02:08:44;;;;;;;261.80;12.93;;;9.10;99.90;;;;;;4857396;29;20165;-94
2021/10/07 02:11:11;;;;;;;443.30;20.35;;;9.10;99.90;;;;;;4845999;29;20057;-95
2021/10/07 02:13:37;;;;;;;284.63;14.25;;;9.10;99.90;;;;;;4879098;29;20140;-95
2021/10/07 02:16:03;;;;;;;310.00;15.07;;;9.10;99.90;;;;;;4860111;29;20077;-94
2021/10/07 02:18:29;;;;;;;372.40;16.05;;;9.00;99.90;;;;;;4861087;29;20056;-94
2021/10/07 02:20:55;;;;;;;261.88;13.45;;;9.00;99.90;;;;;;4846012;29;20049;-94
2021/10/07 02:23:20;;;;;;;240.65;13.50;;;9.10;99.90;;;;;;4864458;29;20068;-93
2021/10/07 02:25:47;;;;;;;292.63;14.50;;;9.00;99.90;;;;;;4864238;29;20485;-96
2021/10/07 02:28:16;;;;;;;259.45;14.70;;;9.00;99.90;;;;;;4880222;29;20489;-94
2021/10/07 02:30:43;;;;;;;367.55;17.40;;;9.00;99.90;;;;;;4865009;29;20056;-95
2021/10/07 02:33:10;;;;;;;311.55;14.50;;;9.00;99.90;;;;;;4879651;29;20085;-94
2021/10/07 02:35:36;;;;;;;333.48;14.07;;;9.00;99.90;;;;;;4849691;29;20105;-94
2021/10/07 02:38:02;;;;;;;408.95;19.83;;;9.00;99.90;;;;;;4863669;29;20497;-93
2021/10/07 02:40:28;;;;;;;259.30;12.18;;;8.90;99.90;;;;;;4882930;29;20048;-93
2021/10/07 02:42:55;;;;;;;404.20;18.15;;;8.90;99.90;;;;;;4868293;29;20049;-92
2021/10/07 02:45:21;;;;;;;397.95;16.00;;;8.80;99.90;;;;;;4879811;29;20088;-92
2021/10/07 02:47:48;;;;;;;288.98;11.02;;;8.80;99.90;;;;;;4864255;29;20044;-95
2021/10/07 02:50:15;;;;;;;279.45;9.70;;;8.80;99.90;;;;;;4863849;29;20069;-94
2021/10/07 02:52:41;;;;;;;267.80;9.60;;;8.70;99.90;;;;;;4864278;29;20100;-93
2021/10/07 02:55:07;;;;;;;219.50;10.02;;;8.70;99.90;;;;;;4831856;29;20206;-94
2021/10/07 02:57:33;;;;;;;291.60;10.88;;;8.70;99.90;;;;;;4855408;29;20049;-93
2021/10/07 02:59:59;;;;;;;196.40;5.78;;;8.70;99.90;;;;;;4845088;29;20049;-92
2021/10/07 03:02:24;;;;;;;301.98;9.20;;;8.70;99.90;;;;;;4845552;29;20136;-92
2021/10/07 03:04:52;;;;;;;217.15;6.50;;;8.60;99.90;;;;;;4842105;29;20136;-93
2021/10/07 03:07:19;;;;;;;203.05;5.82;;;8.60;99.90;;;;;;4848331;29;20053;-93
2021/10/07 03:09:45;;;;;;;130.00;4.97;;;8.60;99.90;;;;;;4841288;29;20072;-93
2021/10/07 03:12:10;;;;;;;241.07;8.93;;;8.60;99.90;;;;;;4857855;29;20493;-93
2021/10/07 03:14:39;;;;;;;286.13;10.63;;;8.60;99.90;;;;;;4847975;29;20057;-94
2021/10/07 03:17:06;;;;;;;249.98;12.25;;;8.60;99.90;;;;;;4848474;29;20053;-92
2021/10/07 03:19:32;;;;;;;288.63;15.70;;;8.60;99.90;;;;;;4848300;29;20052;-92
2021/10/07 03:21:58;;;;;;;171.57;12.60;;;8.60;99.90;;;;;;4862922;29;20140;-92
2021/10/07 03:24:23;;;;;;;323.83;15.98;;;8.60;99.90;;;;;;4861030;29;20098;-92
2021/10/07 03:26:49;;;;;;;260.33;12.38;;;8.60;99.90;;;;;;4851145;29;20037;-94
2021/10/07 03:29:15;;;;;;;232.25;13.45;;;8.60;99.90;;;;;;4830882;29;20156;-92
2021/10/07 03:31:41;;;;;;;237.05;13.50;;;8.60;99.90;;;;;;4861068;29;20493;-92
2021/10/07 03:34:06;;;;;;;175.80;15.07;;;8.60;99.90;;;;;;4831431;29;20056;-92
2021/10/07 03:36:32;;;;;;;354.52;32.33;;;8.60;99.90;;;;;;4832758;29;20484;-93
2021/10/07 03:38:58;;;;;;;273.08;22.27;;;8.50;99.90;;;;;;4847220;29;20515;-95
2021/10/07 03:41:23;;;;;;;274.13;21.30;;;8.60;99.90;;;;;;4844431;29;20049;-93
2021/10/07 03:43:49;;;;;;;368.52;28.20;;;8.60;99.90;;;;;;4843540;29;20052;-94
2021/10/07 03:46:17;;;;;;;375.77;24.02;;;8.50;99.90;;;;;;4827908;29;20049;-93
2021/10/07 03:48:43;;;;;;;280.27;23.20;;;8.60;99.90;;;;;;4843866;29;20386;-93
2021/10/07 03:51:09;;;;;;;166.07;16.98;;;8.50;99.90;;;;;;4837333;29;20058;-94
2021/10/07 03:53:34;;;;;;;239.23;20.05;;;8.50;99.90;;;;;;4856743;29;20046;-94
2021/10/07 03:56:00;;;;;;;365.00;39.67;;;8.50;99.90;;;;;;4875039;29;20057;-95
2021/10/07 03:58:26;;;;;;;497.90;49.05;;;8.50;99.90;;;;;;4829329;29;20057;-94
2021/10/07 04:00:52;;;;;;;402.13;38.65;;;8.50;99.90;;;;;;4859961;29;20505;-95
2021/10/07 04:03:17;;;;;;;295.63;30.95;;;8.50;99.90;;;;;;4829417;29;20061;-94
2021/10/07 04:05:43;;;;;;;510.27;52.45;;;8.50;99.90;;;;;;4844493;29;20533;-94
2021/10/07 04:08:09;;;;;;;486.50;45.50;;;8.50;99.90;;;;;;4828957;29;20049;-93
2021/10/07 04:10:35;;;;;;;281.83;29.85;;;8.50;99.90;;;;;;4847438;29;20106;-94
2021/10/07 04:13:00;;;;;;;353.10;32.25;;;8.50;99.90;;;;;;4844092;29;20053;-95
2021/10/07 04:15:26;;;;;;;393.38;39.28;;;8.40;99.90;;;;;;4829576;29;20049;-93
2021/10/07 04:17:52;;;;;;;216.27;23.08;;;8.40;99.90;;;;;;4843839;29;20064;-94
2021/10/07 04:20:18;;;;;;;262.80;24.33;;;8.40;99.90;;;;;;4828582;29;20409;-93
2021/10/07 04:22:43;;;;;;;387.45;37.28;;;8.30;99.90;;;;;;4844247;29;20065;-94
2021/10/07 04:25:09;;;;;;;279.35;24.33;;;8.30;99.90;;;;;;4843289;29;20060;-95
2021/10/07 04:27:36;;;;;;;322.10;32.60;;;8.40;99.90;;;;;;4844420;29;20052;-95
2021/10/07 04:30:05;;;;;;;219.70;21.70;;;8.30;99.90;;;;;;4844097;29;20124;-95
2021/10/07 04:32:31;;;;;;;241.80;23.90;;;8.40;99.90;;;;;;4844589;29;20077;-95
2021/10/07 04:34:56;;;;;;;407.40;24.98;;;8.30;99.90;;;;;;4828107;29;20073;-94
2021/10/07 04:37:22;;;;;;;213.73;18.52;;;8.30;99.90;;;;;;4844375;29;20052;-95
2021/10/07 04:39:48;;;;;;;362.85;28.45;;;8.30;99.90;;;;;;4839316;29;20045;-94
2021/10/07 04:42:14;;;;;;;229.43;18.75;;;8.30;99.90;;;;;;4858241;29;20045;-94
2021/10/07 04:44:40;;;;;;;444.05;34.13;;;8.30;99.90;;;;;;4843961;29;20068;-93
2021/10/07 04:47:05;;;;;;;402.30;28.20;;;8.30;99.90;;;;;;4843290;29;20041;-93
2021/10/07 04:49:31;;;;;;;426.90;32.70;;;8.30;99.90;;;;;;4828694;29;20045;-93
2021/10/07 04:51:57;;;;;;;298.30;24.88;;;8.30;99.90;;;;;;4845513;29;20409;-94
2021/10/07 04:54:23;;;;;;;399.65;28.77;;;8.30;99.90;;;;;;4863297;29;20063;-93
2021/10/07 04:56:48;;;;;;;402.85;32.00;;;8.30;99.90;;;;;;4863028;29;20045;-94
2021/10/07 04:59:14;;;;;;;353.55;28.85;;;8.30;99.90;;;;;;4861734;29;20112;-94
2021/10/07 05:01:40;;;;;;;302.85;24.92;;;8.30;99.90;;;;;;4846808;29;20156;-95
2021/10/07 05:04:06;;;;;;;417.60;34.38;;;8.40;99.90;;;;;;4846624;29;20097;-94
2021/10/07 05:06:31;;;;;;;397.88;32.58;;;8.40;99.90;;;;;;4831702;29;20045;-95
2021/10/07 05:08:57;;;;;;;437.10;33.95;;;8.30;99.90;;;;;;4861987;29;20049;-95
2021/10/07 05:11:23;;;;;;;536.13;35.90;;;8.30;99.90;;;;;;4846719;29;20441;-95
2021/10/07 05:13:49;;;;;;;448.73;35.53;;;8.30;99.90;;;;;;4846807;29;20496;-94
2021/10/07 05:16:15;;;;;;;379.48;30.65;;;8.30;99.90;;;;;;4861593;29;20053;-94
2021/10/07 05:18:40;;;;;;;426.83;31.80;;;8.30;99.90;;;;;;4831988;29;20061;-95
2021/10/07 05:21:06;;;;;;;168.75;13.10;;;8.30;99.90;;;;;;4846119;29;20400;-94
2021/10/07 05:23:34;;;;;;;285.38;17.00;;;8.30;99.90;;;;;;4846448;29;20061;-93
2021/10/07 05:26:00;;;;;;;252.07;13.27;;;8.40;99.90;;;;;;4845984;29;20045;-94
2021/10/07 05:28:27;;;;;;;233.63;12.10;;;8.30;99.90;;;;;;4846656;29;20148;-94
2021/10/07 05:30:52;;;;;;;280.88;16.85;;;8.30;99.90;;;;;;4861941;29;20095;-93
2021/10/07 05:33:22;;;;;;;281.00;17.17;;;8.30;99.90;;;;;;4848878;29;20273;-94
2021/10/07 05:35:49;;;;;;;237.40;13.65;;;8.30;99.90;;;;;;4846708;29;20057;-95
2021/10/07 05:38:16;;;;;;;115.80;8.63;;;8.40;99.90;;;;;;4856418;29;20041;-94
2021/10/07 05:40:41;;;;;;;210.77;10.38;;;8.40;99.90;;;;;;4853001;29;20479;-93
2021/10/07 05:43:11;;;;;;;233.73;11.18;;;8.40;99.90;;;;;;4846133;29;20140;-93
2021/10/07 05:45:38;;;;;;;150.43;9.77;;;8.40;99.90;;;;;;4831282;29;20074;-94
2021/10/07 05:48:04;;;;;;;291.45;13.55;;;8.30;99.90;;;;;;4846275;29;20489;-94
2021/10/07 05:50:30;;;;;;;311.33;14.20;;;8.30;99.90;;;;;;4830813;29;20061;-94
2021/10/07 05:52:56;;;;;;;266.73;11.95;;;8.40;99.90;;;;;;4861651;29;20057;-93
2021/10/07 05:55:22;;;;;;;322.58;13.38;;;8.40;99.90;;;;;;4847952;29;20049;-95
2021/10/07 05:57:48;;;;;;;421.30;16.83;;;8.40;99.90;;;;;;4832683;29;20072;-93
2021/10/07 06:00:14;;;;;;;404.35;17.92;;;8.40;99.90;;;;;;4863439;29;20057;-94
2021/10/07 06:02:40;;;;;;;304.33;14.73;;;8.40;99.90;;;;;;4833288;29;20053;-94
2021/10/07 06:05:08;;;;;;;342.55;14.77;;;8.40;99.90;;;;;;4846729;29;20129;-93
2021/10/07 06:07:34;;;;;;;313.92;15.93;;;8.40;99.90;;;;;;4847767;29;20088;-95
2021/10/07 06:10:00;;;;;;;344.52;14.30;;;8.40;99.90;;;;;;4823336;29;20090;-95
2021/10/07 06:12:26;;;;;;;301.50;13.35;;;8.50;99.90;;;;;;4843716;29;20046;-95
2021/10/07 06:14:52;;;;;;;293.38;15.15;;;8.50;99.90;;;;;;4821340;29;20062;-95
2021/10/07 06:17:18;;;;;;;322.30;16.00;;;8.50;99.90;;;;;;4818924;29;20514;-94
2021/10/07 06:19:47;;;;;;;262.55;14.13;;;8.50;99.90;;;;;;4835634;29;20044;-94
2021/10/07 06:22:13;;;;;;;303.17;13.63;;;8.60;99.90;;;;;;4817378;29;20092;-95
2021/10/07 06:24:39;;;;;;;375.45;16.40;;;8.60;99.90;;;;;;4849382;29;20057;-95
2021/10/07 06:27:05;;;;;;;276.33;11.85;;;8.60;99.90;;;;;;4857203;29;20050;-94
2021/10/07 06:29:31;;;;;;;257.17;13.57;;;8.60;99.90;;;;;;4846532;29;20141;-96
2021/10/07 06:31:57;;;;;;;362.58;16.52;;;8.60;99.90;;;;;;4831278;29;20077;-95
2021/10/07 06:34:23;;;;;;;310.20;15.18;;;8.60;99.90;;;;;;4831634;29;20049;-94
2021/10/07 06:36:48;;;;;;;217.60;11.88;;;8.70;99.90;;;;;;4830966;29;20076;-93
2021/10/07 06:39:14;;;;;;;366.10;16.52;;;8.70;99.90;;;;;;4815706;29;20136;-94
2021/10/07 06:41:40;;;;;;;342.27;16.60;;;8.70;99.90;;;;;;4822646;29;20060;-96
2021/10/07 06:44:06;;;;;;;255.18;13.88;;;8.80;99.90;;;;;;4837099;29;20066;-96
2021/10/07 06:46:32;;;;;;;243.90;15.18;;;8.80;99.90;;;;;;4817741;29;20049;-92
2021/10/07 06:48:57;;;;;;;100.22;9.32;;;8.80;99.90;;;;;;4818100;29;20448;-94
2021/10/07 06:51:25;;;;;;;227.57;12.63;;;8.80;99.90;;;;;;4859772;29;20057;-95
2021/10/07 06:53:56;;;;;;;229.50;12.40;;;8.80;99.90;;;;;;4864932;29;20063;-95
2021/10/07 06:56:23;;;;;;;158.02;8.80;;;8.80;99.90;;;;;;4849192;29;20041;-95
2021/10/07 06:58:52;;;;;;;181.95;10.25;;;8.80;99.90;;;;;;4871159;29;20040;-93
2021/10/07 07:01:28;;;;;;;306.70;13.27;;;8.80;99.90;;;;;;4836257;29;20052;-95
2021/10/07 07:03:56;;;;;;;236.55;12.60;;;8.80;99.90;;;;;;4864221;29;20072;-95
2021/10/07 07:06:26;;;;;;;201.35;12.13;;;8.80;99.90;;;;;;4865042;29;20041;-93
2021/10/07 07:08:52;;;;;;;294.98;14.77;;;8.90;99.90;;;;;;4862670;29;20041;-94
2021/10/07 07:11:18;;;;;;;247.18;12.05;;;8.90;99.90;;;;;;4841296;29;20053;-96
2021/10/07 07:13:44;;;;;;;266.40;15.20;;;8.90;99.90;;;;;;4847066;29;20065;-95
2021/10/07 07:16:11;;;;;;;291.52;14.30;;;8.90;99.90;;;;;;4850999;29;20118;-96
2021/10/07 07:18:37;;;;;;;226.30;15.07;;;8.90;99.90;;;;;;4869705;29;20041;-94
2021/10/07 07:21:03;;;;;;;226.18;15.10;;;8.90;99.90;;;;;;4845814;29;20515;-94
2021/10/07 07:23:28;;;;;;;219.55;14.45;;;8.90;99.90;;;;;;4847195;29;20049;-94
2021/10/07 07:25:54;;;;;;;181.95;12.55;;;9.00;99.90;;;;;;4831082;29;20066;-92
2021/10/07 07:28:20;;;;;;;133.05;13.55;;;9.00;99.90;;;;;;4862314;29;20458;-94
2021/10/07 07:30:49;;;;;;;146.90;15.27;;;9.10;99.90;;;;;;4861655;29;20053;-93
2021/10/07 07:33:16;;;;;;;133.07;15.73;;;9.20;99.90;;;;;;4846467;29;20474;-90
2021/10/07 07:35:41;;;;;;;134.27;15.00;;;9.30;99.90;;;;;;4861756;29;20052;-92
2021/10/07 07:38:07;;;;;;;125.03;14.23;;;9.30;99.90;;;;;;4861652;29;20454;-93
2021/10/07 07:40:33;;;;;;;118.35;14.88;;;9.30;99.90;;;;;;4832914;29;20057;-92
2021/10/07 07:43:00;;;;;;;100.28;14.60;;;9.40;99.90;;;;;;4872936;29;20523;-93
2021/10/07 07:45:26;;;;;;;118.93;15.80;;;9.40;99.90;;;;;;4862281;29;20228;-92
2021/10/07 07:47:52;;;;;;;90.32;15.15;;;9.40;99.90;;;;;;4861482;29;20434;-92
2021/10/07 07:50:19;;;;;;;143.00;17.75;;;9.50;99.90;;;;;;4845493;29;20057;-92
2021/10/07 07:52:49;;;;;;;162.23;18.23;;;9.50;99.90;;;;;;4866225;29;20140;-93
2021/10/07 07:55:14;;;;;;;91.95;15.73;;;9.60;99.90;;;;;;4862414;29;20041;-92
2021/10/07 07:57:40;;;;;;;138.50;19.40;;;9.60;99.90;;;;;;4861686;29;20563;-92
2021/10/07 08:00:07;;;;;;;155.90;21.15;;;9.70;99.90;;;;;;4847320;29;20104;-93
2021/10/07 08:02:33;;;;;;;237.45;22.52;;;9.70;99.90;;;;;;4831131;29;20075;-92
2021/10/07 08:04:59;;;;;;;179.15;21.77;;;9.70;99.90;;;;;;4815091;29;20500;-92
2021/10/07 08:07:27;;;;;;;152.15;21.05;;;9.80;99.90;;;;;;4833520;29;20052;-92
2021/10/07 08:09:53;;;;;;;161.32;20.52;;;9.90;99.90;;;;;;4845682;29;20097;-93
2021/10/07 08:12:19;;;;;;;117.15;19.65;;;10.00;99.90;;;;;;4860330;29;20060;-92
2021/10/07 08:14:47;;;;;;;108.03;18.60;;;10.10;99.90;;;;;;4880096;29;20045;-92
2021/10/07 08:17:14;;;;;;;118.55;20.38;;;10.10;99.90;;;;;;4859971;29;20101;-92
2021/10/07 08:19:40;;;;;;;57.72;16.75;;;10.10;99.90;;;;;;4845174;29;20109;-92
2021/10/07 08:22:06;;;;;;;65.75;16.80;;;10.20;99.90;;;;;;4861206;29;20045;-92
2021/10/07 08:24:33;;;;;;;62.92;15.52;;;10.20;99.90;;;;;;4829982;29;20585;-92
2021/10/07 08:27:00;;;;;;;66.40;15.18;;;10.20;99.90;;;;;;4845798;29;20057;-91
2021/10/07 08:29:26;;;;;;;108.07;16.98;;;10.30;99.90;;;;;;4869033;29;20052;-92
2021/10/07 08:31:52;;;;;;;78.47;15.82;;;10.20;99.90;;;;;;4834113;29;20056;-92
2021/10/07 08:34:18;;;;;;;98.65;17.08;;;10.20;99.90;;;;;;4860272;29;20140;-90
2021/10/07 08:36:45;;;;;;;157.43;19.27;;;10.30;99.90;;;;;;4815192;29;20090;-92
2021/10/07 08:39:13;;;;;;;103.40;17.90;;;10.30;99.90;;;;;;4845656;29;20045;-93
2021/10/07 08:41:40;;;;;;;200.00;18.88;;;10.30;99.90;;;;;;4865024;29;20505;-91
2021/10/07 08:44:06;;;;;;;55.85;13.55;;;10.30;99.90;;;;;;4852354;29;20086;-91
2021/10/07 08:46:32;;;;;;;158.15;15.88;;;10.30;99.90;;;;;;4875918;29;20156;-93
2021/10/07 08:49:01;;;;;;;61.67;12.68;;;10.30;99.90;;;;;;4831165;29;20521;-91
2021/10/07 08:51:27;;;;;;;78.28;13.38;;;10.40;99.90;;;;;;4860481;29;20093;-91
2021/10/07 08:53:53;;;;;;;76.13;12.63;;;10.40;99.90;;;;;;4846731;29;20045;-91
2021/10/07 08:56:20;;;;;;;74.78;12.18;;;10.40;99.90;;;;;;4851170;29;20051;-92
2021/10/07 08:58:46;;;;;;;60.60;11.55;;;10.50;99.90;;;;;;4863727;29;20068;-92
2021/10/07 09:01:44;;;;;;;65.75;11.98;;;10.40;99.90;;;;;;4864602;29;20056;-92
2021/10/07 09:04:22;;;;;;;65.50;10.95;;;10.50;99.90;;;;;;4847626;29;20065;-90
2021/10/07 09:06:51;;;;;;;50.72;11.30;;;10.50;99.90;;;;;;4860496;29;20505;-89
2021/10/07 09:09:17;;;;;;;81.68;11.35;;;10.40;99.90;;;;;;4847477;29;20044;-90
2021/10/07 09:11:52;;;;;;;80.75;11.20;;;10.30;99.90;;;;;;4841354;29;20446;-89
2021/10/07 09:14:23;;;;;;;40.03;9.02;;;10.30;99.90;;;;;;4887055;29;20047;-90
2021/10/07 09:16:50;;;;;;;53.17;8.70;;;10.40;99.90;;;;;;4845012;29;20079;-91
2021/10/07 09:19:23;;;;;;;68.45;9.93;;;10.40;99.90;;;;;;4830102;29;20437;-92
2021/10/07 09:21:51;;;;;;;53.20;10.63;;;10.40;99.90;;;;;;4860371;29;20051;-90
2021/10/07 09:24:36;;;;;;;68.78;11.02;;;10.50;99.90;;;;;;4860342;29;20409;-92
2021/10/07 09:27:13;;;;;;;82.35;11.05;;;10.60;99.90;;;;;;4859135;29;20548;-90
2021/10/07 09:29:48;;;;;;;35.53;10.35;;;10.70;99.90;;;;;;4842351;29;20500;-90
2021/10/07 09:32:22;;;;;;;57.88;12.05;;;10.80;99.90;;;;;;4858768;29;20060;-89
2021/10/07 09:34:50;;;;;;;31.30;11.75;;;10.90;99.90;;;;;;4859109;29;20564;-89
2021/10/07 09:37:23;;;;;;;31.70;11.20;;;11.00;99.90;;;;;;4858819;29;20049;-90
2021/10/07 09:39:51;;;;;;;24.48;11.77;;;11.00;99.90;;;;;;4858511;29;20132;-90
2021/10/07 09:42:28;;;;;;;29.73;12.60;;;11.10;99.90;;;;;;4859787;29;20572;-93
2021/10/07 09:45:06;;;;;;;35.53;12.63;;;11.20;99.90;;;;;;4856828;29;20041;-91
2021/10/07 09:47:34;;;;;;;43.50;12.68;;;11.20;99.90;;;;;;4844850;29;20465;-91
2021/10/07 09:50:34;;;;;;;33.53;13.38;;;11.30;99.90;;;;;;4840537;29;20069;-93
2021/10/07 09:53:11;;;;;;;29.38;13.68;;;11.30;99.90;;;;;;4855031;29;20102;-90
2021/10/07 09:55:48;;;;;;;27.92;14.50;;;11.30;99.90;;;;;;4845992;29;20054;-89
2021/10/07 09:58:18;;;;;;;20.83;13.18;;;11.40;99.90;;;;;;4857616;29;20077;-90
2021/10/07 10:00:46;;;;;;;24.13;14.23;;;11.40;99.90;;;;;;4856495;29;20089;-89
2021/10/07 10:03:14;;;;;;;27.83;14.32;;;11.50;99.90;;;;;;4841157;29;20061;-90
2021/10/07 10:05:41;;;;;;;26.90;14.73;;;11.60;99.90;;;;;;4839934;29;20049;-90
2021/10/07 10:08:11;;;;;;;27.95;15.18;;;11.70;99.90;;;;;;4841170;29;20085;-89
2021/10/07 10:10:39;;;;;;;35.42;19.27;;;11.60;99.90;;;;;;4872101;29;20085;-90
2021/10/07 10:13:07;;;;;;;34.90;17.38;;;11.60;99.90;;;;;;4867981;29;20057;-91
2021/10/07 10:15:37;;;;;;;30.77;15.60;;;11.60;99.90;;;;;;4843144;29;20069;-90
2021/10/07 10:18:16;;;;;;;31.52;17.35;;;11.70;99.90;;;;;;4869991;29;20058;-90
2021/10/07 10:20:48;;;;;;;26.00;14.98;;;11.80;99.90;;;;;;4844189;29;20041;-88
2021/10/07 10:23:16;;;;;;;43.05;23.02;;;11.80;99.90;;;;;;4857866;29;20058;-91
2021/10/07 10:26:08;;;;;;;47.65;27.77;;;11.90;99.90;;;;;;4854783;29;20069;-91
2021/10/07 10:28:40;;;;;;;34.30;20.75;;;11.90;99.90;;;;;;4849846;29;20495;-88
2021/10/07 10:31:13;;;;;;;38.80;22.92;;;11.80;99.90;;;;;;4852289;29;20049;-89
2021/10/07 10:33:43;;;;;;;47.90;28.70;;;11.90;99.90;;;;;;4840257;29;20053;-90
2021/10/07 10:36:27;;;;;;;37.30;22.00;;;11.90;99.90;;;;;;4855686;29;20053;-91
2021/10/07 10:39:23;;;;;;;53.38;29.25;;;12.00;99.90;;;;;;4854100;29;20128;-88
2021/10/07 10:41:54;;;;;;;52.85;29.63;;;12.00;99.90;;;;;;4850253;29;20061;-90
2021/10/07 10:44:35;;;;;;;;;;;12.10;99.90;;;;;;4844638;29;20372;-89
2021/10/07 10:47:16;;;;;;;40.78;25.08;;;12.10;99.90;;;;;;4855465;29;19939;-89
2021/10/07 10:49:51;;;;;;;46.45;28.05;;;12.20;99.90;;;;;;4859447;29;20093;-88
2021/10/07 10:52:23;;;;;;;48.80;27.98;;;12.30;99.90;;;;;;4852076;29;20056;-87
2021/10/07 10:54:54;;;;;;;42.75;27.17;;;12.30;99.90;;;;;;4846717;29;20045;-88
2021/10/07 10:57:37;;;;;;;49.83;27.13;;;12.20;99.90;;;;;;4851769;29;20082;-88
2021/10/07 11:00:08;;;;;;;53.47;30.00;;;12.30;99.90;;;;;;4862017;29;20484;-89
2021/10/07 11:02:35;;;;;;;41.40;25.30;;;12.30;99.90;;;;;;4862725;29;20053;-90
2021/10/07 11:05:16;;;;;;;42.50;25.38;;;12.30;99.90;;;;;;4862376;29;20079;-90
2021/10/07 11:07:42;;;;;;;42.72;25.23;;;12.40;99.90;;;;;;4863343;29;20169;-91
2021/10/07 11:10:29;;;;;;;43.10;27.23;;;12.50;99.90;;;;;;4862115;29;20087;-90
2021/10/07 11:13:00;;;;;;;53.38;29.63;;;12.50;99.90;;;;;;4842166;29;20124;-91
2021/10/07 11:15:28;;;;;;;40.03;24.38;;;12.50;99.90;;;;;;4846393;29;20053;-91
2021/10/07 11:17:58;;;;;;;45.33;25.67;;;12.50;99.90;;;;;;4855080;29;20105;-92
2021/10/07 11:20:31;;;;;;;43.75;27.75;;;12.40;99.90;;;;;;4847444;29;20049;-91
2021/10/07 11:23:06;;;;;;;28.40;18.77;;;12.50;99.90;;;;;;4839571;29;20078;-91
2021/10/07 11:25:35;;;;;;;35.00;22.20;;;12.50;99.90;;;;;;4858873;29;20049;-91
2021/10/07 11:28:02;;;;;;;46.40;27.35;;;12.50;99.90;;;;;;4872647;29;20060;-91
2021/10/07 11:30:31;;;;;;;40.40;26.92;;;12.60;99.90;;;;;;4862099;29;20493;-93
2021/10/07 11:33:00;;;;;;;43.35;27.10;;;12.60;99.90;;;;;;4843676;29;20045;-92
2021/10/07 11:35:26;;;;;;;42.92;27.98;;;12.70;99.90;;;;;;4860520;29;20056;-92
2021/10/07 11:37:52;;;;;;;34.10;22.27;;;12.80;99.90;;;;;;4857981;29;20092;-90
2021/10/07 11:40:29;;;;;;;34.63;22.23;;;12.90;99.90;;;;;;4857229;29;20132;-89
2021/10/07 11:42:57;;;;;;;36.55;22.75;;;12.90;99.90;;;;;;4859095;29;20045;-90
2021/10/07 11:45:26;;;;;;;32.47;22.25;;;12.90;99.90;;;;;;4855379;29;20068;-90
2021/10/07 11:47:53;;;;;;;38.22;25.00;;;12.90;99.90;;;;;;4873024;29;20060;-91
2021/10/07 11:50:21;;;;;;;39.17;25.83;;;13.00;99.90;;;;;;4835529;29;20162;-90
2021/10/07 11:52:49;;;;;;;38.28;24.55;;;13.10;99.90;;;;;;4858071;29;20517;-90
2021/10/07 11:55:17;;;;;;;36.35;24.25;;;13.20;99.90;;;;;;4860051;29;20613;-92
2021/10/07 11:57:58;;;;;;;33.95;21.90;;;13.10;99.90;;;;;;4859675;29;20054;-91
2021/10/07 12:00:43;;;;;;;34.22;23.55;;;13.30;99.90;;;;;;4860263;29;20425;-91
2021/10/07 12:03:17;;;;;;;33.47;21.38;;;13.50;99.90;;;;;;4880760;29;20053;-91
2021/10/07 12:05:46;;;;;;;30.33;22.02;;;13.60;99.90;;;;;;4868427;29;20059;-91
2021/10/07 12:08:14;;;;;;;34.37;22.67;;;13.70;99.90;;;;;;4866828;29;20049;-93
2021/10/07 12:10:48;;;;;;;35.83;23.58;;;13.90;99.90;;;;;;4852503;29;20068;-92
2021/10/07 12:13:20;;;;;;;34.15;22.55;;;13.90;99.90;;;;;;4859588;29;20045;-92
2021/10/07 12:15:52;;;;;;;29.45;19.55;;;14.00;99.90;;;;;;4857838;29;20045;-92
2021/10/07 12:18:20;;;;;;;27.80;18.90;;;14.00;99.90;;;;;;4861599;29;20045;-92
2021/10/07 12:20:59;;;;;;;25.50;18.10;;;13.90;99.90;;;;;;4858912;29;20132;-91
2021/10/07 12:23:25;;;;;;;26.40;19.70;;;13.90;99.90;;;;;;4855413;29;20156;-93
2021/10/07 12:25:58;;;;;;;26.58;19.55;;;13.90;99.90;;;;;;4857974;29;20572;-92
2021/10/07 12:28:24;;;;;;;21.88;17.38;;;14.00;99.90;;;;;;4862661;29;20515;-93
2021/10/07 12:31:00;;;;;;;27.38;18.75;;;14.10;99.90;;;;;;4858176;29;20110;-92
2021/10/07 12:33:28;;;;;;;25.17;16.85;;;14.20;99.90;;;;;;4856051;29;20104;-92
2021/10/07 12:36:00;;;;;;;19.30;15.65;;;14.30;99.90;;;;;;4843209;29;20056;-92
2021/10/07 12:38:26;;;;;;;19.73;14.70;;;14.20;99.90;;;;;;4882564;29;20425;-92
2021/10/07 12:41:01;;;;;;;19.60;15.02;;;14.30;99.90;;;;;;4866759;29;20132;-93
2021/10/07 12:43:28;;;;;;;18.55;13.52;;;14.30;99.90;;;;;;4844934;29;20425;-93
2021/10/07 12:46:19;;;;;;;18.67;14.85;;;14.30;99.90;;;;;;4859249;29;20053;-92
2021/10/07 12:48:48;;;;;;;17.33;14.45;;;14.50;99.90;;;;;;4867087;29;20629;-91
2021/10/07 12:51:15;;;;;;;15.50;13.38;;;14.80;99.90;;;;;;4860388;29;20056;-92
2021/10/07 12:53:42;;;;;;;16.10;13.75;;;15.00;99.90;;;;;;4858693;29;20072;-91
2021/10/07 12:56:10;;;;;;;15.25;13.57;;;15.30;99.90;;;;;;4844810;29;20049;-92